ADDS METAR Data INFO
IDs: Format: Raw Decoded Include TAF

Data at: 1543 UTC 12 Dec 2017

KFET 121535Z AUTO 27003KT 10SM CLR M05/M07 A3031 RMK AO2 T10531075
KFET 121515Z AUTO 00000KT 10SM CLR M06/M08 A3030 RMK AO2 T10621084
KFET 121455Z AUTO 00000KT 10SM CLR M07/M09 A3030 RMK AO2 T10721092
KFET 121435Z AUTO 00000KT 10SM CLR M09/M10 A3031 RMK AO2 T10861105
KFET 121415Z AUTO 00000KT 10SM SCT028 M09/M11 A3031 RMK AO2 T10951114
KFET 121355Z AUTO 00000KT 10SM SCT028 M10/M12 A3032 RMK AO2 T11031120
KFET 121335Z AUTO 00000KT 7SM CLR M10/M11 A3033 RMK AO2 T10971114
KFET 121315Z AUTO 00000KT 10SM CLR M10/M12 A3033 RMK AO2 T11001116
KFET 121255Z AUTO 00000KT 10SM CLR M10/M11 A3033 RMK AO2 T11001115
KFET 121235Z AUTO 30003KT 10SM CLR M10/M12 A3033 RMK AO2 T11001117
KFET 121215Z AUTO 27003KT 10SM CLR M10/M11 A3033 RMK AO2 T10981115
KFET 121155Z AUTO 31003KT 10SM CLR M10/M12 A3033 RMK AO2 T11001119 11045 21105
KFET 121135Z AUTO 28003KT 10SM CLR M10/M12 A3033 RMK AO2 T10971116
KFET 121115Z AUTO 28006KT 10SM CLR M09/M11 A3034 RMK AO2 T10951113
KFET 121055Z AUTO 28007KT 10SM CLR M09/M11 A3035 RMK AO2 T10951113
KFET 121035Z AUTO 28005KT 10SM CLR M09/M11 A3035 RMK AO2 T10901110
KFET 121015Z AUTO 25003KT 10SM CLR M09/M11 A3035 RMK AO2 T10931112
KFET 120955Z AUTO 28004KT 10SM CLR M10/M12 A3035 RMK AO2 T11051122
KFET 120935Z AUTO 30005KT 10SM CLR M10/M12 A3036 RMK AO2 T10961116
KFET 120915Z AUTO 31005KT 10SM CLR M09/M11 A3036 RMK AO2 T10881109
KFET 120855Z AUTO 32005KT 10SM CLR M08/M10 A3036 RMK AO2 T10831104
KFET 120835Z AUTO 33004KT 10SM CLR M08/M10 A3036 RMK AO2 T10821103
KFET 120815Z AUTO 31008KT 10SM CLR M08/M10 A3037 RMK AO2 T10811100
KFET 120755Z AUTO 31008KT 10SM CLR M07/M09 A3037 RMK AO2 T10751095
KFET 120735Z AUTO 31009KT 10SM CLR M07/M09 A3037 RMK AO2 T10731095
KFET 120715Z AUTO 30007KT 10SM CLR M07/M09 A3037 RMK AO2 T10701094
KFET 120655Z AUTO 32008G14KT 10SM CLR M06/M09 A3037 RMK AO2 T10571086
KFET 120635Z AUTO 33009KT 10SM CLR M05/M08 A3037 RMK AO2 T10551085
KFET 120615Z AUTO 32010KT 10SM CLR M05/M08 A3036 RMK AO2 T10531085
KFET 120555Z AUTO 32007G15KT 10SM CLR M04/M08 A3036 RMK AO2 T10431083 10033 21043 400921043
KFET 120535Z AUTO 33012G15KT 10SM CLR M04/M08 A3036 RMK AO2 T10361081
KFET 120515Z AUTO 32012G17KT 10SM CLR M03/M08 A3036 RMK AO2 T10321076
KFET 120455Z AUTO 33008KT 10SM CLR M03/M07 A3035 RMK AO2 T10261067
KFET 120435Z AUTO 33010G16KT 10SM CLR M02/M06 A3034 RMK AO2 T10201064
KFET 120415Z AUTO 33015G18KT 10SM CLR M01/M06 A3033 RMK AO2 T10151060
KFET 120355Z AUTO 32013G21KT 10SM CLR M01/M05 A3032 RMK AO2 T10111055
KFET 120335Z AUTO 32013G18KT 10SM CLR M01/M05 A3032 RMK AO2 T10071051
KFET 120315Z AUTO 32013G19KT 10SM CLR 00/M05 A3031 RMK AO2 T10051047
KFET 120255Z AUTO 33011G20KT 10SM CLR 00/M05 A3030 RMK AO2 T00001046
KFET 120235Z AUTO 32016G22KT 10SM CLR 00/M05 A3030 RMK AO2 T00041046
KFET 120215Z AUTO 32016G24KT 10SM CLR 01/M04 A3029 RMK AO2 T00061043
KFET 120155Z AUTO 32017G25KT 10SM CLR 01/M04 A3028 RMK AO2 T00101038
KFET 120135Z AUTO 33020G27KT 10SM CLR 02/M03 A3027 RMK AO2 T00151028
KFET 120115Z AUTO 32017G24KT 10SM CLR 02/M03 A3026 RMK AO2 T00161026
KFET 120055Z AUTO 33020G29KT 10SM CLR 02/M03 A3025 RMK AO2 T00201027
KFET 120035Z AUTO 33017G23KT 10SM CLR 02/M03 A3024 RMK AO2 T00211028
KFET 120015Z AUTO 33015G22KT 10SM CLR 03/M03 A3022 RMK AO2 T00251027
KFET 112355Z AUTO 33018G26KT 10SM SCT031 03/M02 A3021 RMK AO2 T00341025 10086 20034
KFET 112335Z AUTO 33020G24KT 10SM OVC031 04/M02 A3020 RMK AO2 T00391022
KFET 112315Z AUTO 33022G32KT 10SM OVC031 04/M02 A3019 RMK AO2 T00441022
KFET 112255Z AUTO 33019G27KT 10SM OVC027 05/M01 A3019 RMK AO2 T00461012
KFET 112235Z AUTO 33022G28KT 10SM OVC027 05/M01 A3017 RMK AO2 T00481010
KFET 112215Z AUTO 33021G30KT 10SM OVC025 05/M01 A3016 RMK AO2 T00501007
KFET 112155Z AUTO 34017G32KT 10SM OVC025 05/00 A3014 RMK AO2 T00521001
KFET 112135Z AUTO 32021G31KT 10SM OVC027 06/00 A3012 RMK AO2 T00590000
KFET 112115Z AUTO 33023G32KT 10SM BKN027 OVC034 06/00 A3011 RMK AO2 T00610000
KFET 112055Z AUTO 32027G35KT 10SM OVC029 07/00 A3009 RMK AO2 T00670002
KFET 112035Z AUTO 32022G34KT 10SM OVC029 07/00 A3007 RMK AO2 T00680001
KFET 112015Z AUTO 32024G36KT 10SM OVC029 07/00 A3006 RMK AO2 T00680000
KFET 111955Z AUTO 32023G36KT 10SM OVC031 07/00 A3005 RMK AO2 T00730000
KFET 111935Z AUTO 32026G35KT 10SM OVC033 08/00 A3005 RMK AO2 T00760000
KFET 111915Z AUTO 32025G34KT 10SM OVC033 08/00 A3004 RMK AO2 T00761001
KFET 111855Z AUTO 31025G31KT 10SM OVC035 08/00 A3003 RMK AO2 T00771002
KFET 111835Z AUTO 32024G36KT 10SM OVC035 08/00 A3003 RMK AO2 T00801002
KFET 111815Z AUTO 32025G37KT 10SM OVC037 08/00 A3003 RMK AO2 T00831004
KFET 111755Z AUTO 31031G37KT 10SM OVC037 09/00 A3002 RMK AO2 T00851005 10092 20005
KFET 111735Z AUTO 32026G37KT 10SM OVC041 08/M01 A3002 RMK AO2 T00831009
KFET 111715Z AUTO 32026G36KT 10SM OVC041 08/M01 A3003 RMK AO2 T00831010
KFET 111655Z AUTO 32028G41KT 10SM OVC041 09/M01 A3002 RMK AO2 T00871011
KFET 111635Z AUTO 31029G40KT 10SM OVC043 09/M01 A3001 RMK AO2 T00861015
KFET 111615Z AUTO 31029G38KT 10SM BKN043 09/M01 A3000 RMK AO2 T00911015
KFET 111555Z AUTO 31027G37KT 10SM SCT043 09/M02 A2999 RMK AO2 T00861017
KFET 111535Z AUTO 31027G33KT 10SM SCT043 09/M02 A2998 RMK AO2 T00851023
KFET 111515Z AUTO 31024G34KT 10SM CLR 08/M03 A2997 RMK AO2 T00801026
KFET 111455Z AUTO 31021G30KT 10SM CLR 08/M04 A2997 RMK AO2 T00751036
KFET 111435Z AUTO 29013KT 10SM CLR 03/M06 A2996 RMK AO2 T00251062
KFET 111415Z AUTO 29009KT 10SM CLR 02/M07 A2996 RMK AO2 T00161070
KFET 111355Z AUTO 29008KT 10SM CLR 02/M07 A2996 RMK AO2 T00181071
KFET 111335Z AUTO 28012KT 10SM CLR 01/M07 A2995 RMK AO2 T00131071
KFET 111315Z AUTO 28009KT 10SM CLR 01/M07 A2994 RMK AO2 T00081075
KFET 111255Z AUTO 27015KT 10SM CLR 03/M08 A2993 RMK AO2 T00311076
KFET 111235Z AUTO 27015KT 10SM CLR 04/M08 A2993 RMK AO2 T00351076
KFET 111215Z AUTO 27018G21KT 10SM CLR 04/M08 A2992 RMK AO2 T00421077
KFET 111155Z AUTO 27017G21KT 10SM CLR 04/M08 A2992 RMK AO2 T00371076 10044 21023
KFET 111135Z AUTO 27012KT 10SM CLR 02/M08 A2992 RMK AO2 T00171077
KFET 111115Z AUTO 27012KT 10SM CLR 02/M07 A2992 RMK AO2 T00211075
KFET 111055Z AUTO 27011KT 10SM CLR 03/M08 A2992 RMK AO2 T00271076
KFET 111035Z AUTO 27008KT 10SM CLR 01/M07 A2994 RMK AO2 T00071073
KFET 111015Z AUTO 30007KT 10SM CLR 02/M07 A2994 RMK AO2 T00211075
KFET 110955Z AUTO 27009KT 10SM CLR 03/M07 A2995 RMK AO2 T00301075
KFET 110935Z AUTO 27009KT 10SM CLR 03/M07 A2996 RMK AO2 T00341070
KFET 110915Z AUTO 28007KT 10SM CLR 03/M06 A2996 RMK AO2 T00331063
KFET 110855Z AUTO 28007KT 10SM CLR 02/M06 A2996 RMK AO2 T00151063
KFET 110835Z AUTO 28007KT 10SM CLR 02/M06 A2997 RMK AO2 T00181061
KFET 110815Z AUTO 28007KT 10SM CLR 00/M06 A2998 RMK AO2 T00001062
KFET 110755Z AUTO 28003KT 10SM CLR 00/M06 A2997 RMK AO2 T10031065
KFET 110735Z AUTO 27003KT 10SM CLR 00/M06 A2998 RMK AO2 T10051061
KFET 110715Z AUTO 00000KT 10SM CLR M01/M06 A2999 RMK AO2 T10101065
KFET 110655Z AUTO 30006KT 10SM CLR M02/M07 A3000 RMK AO2 T10161067
KFET 110635Z AUTO 25003KT 10SM CLR M02/M07 A3000 RMK AO2 T10161067
KFET 110615Z AUTO 00000KT 10SM CLR M02/M06 A3001 RMK AO2 T10181062
KFET 110555Z AUTO 00000KT 10SM CLR M01/M06 A3001 RMK AO2 T10101060 10059 21021 401291047
KFET 110535Z AUTO 00000KT 10SM CLR M02/M06 A3002 RMK AO2 T10181056
KFET 110515Z AUTO 00000KT 10SM CLR M01/M06 A3003 RMK AO2 T10101060
KFET 110455Z AUTO 00000KT 10SM CLR M01/M06 A3003 RMK AO2 T10131065
KFET 110435Z AUTO 00000KT 10SM CLR M01/M07 A3004 RMK AO2 T10141067
KFET 110415Z AUTO 00000KT 10SM CLR M02/M06 A3005 RMK AO2 T10171063
KFET 110355Z AUTO 00000KT 10SM CLR 00/M05 A3006 RMK AO2 T10031052